Airfield :
LOGIN :

Register | Disclaimer

   EN    FR    IT 

 










Legend :    VFR   Marginal VFR   IFR   Intensive IFR   Very Intensive IFR
Visi :
Ceiling :
>= 8 km
>= 3000ft
5 to 8 km
1000 to 3000 ft
1500m to 5 km
500 to 1000 ft
800 to 1500m
200 to 500 ft
< 800m
< 200 ft
Symbols :   Thunderstorms  Fog  Heavy snow  Heavy precipitations  Wind > 20 kt
SIGMETs :     Misc.  Thunderstorms  Icing  Turbulence  Mountain Waves  Volcanic Ashes







- Airport Elevation : 233 ft
- IATA code : REU


LERS - Reus Tarragona

CURRENT METAR :
  • 241200Z 17009KT 090V240 9999 FEW040 18/05 Q1009

EXPIRED METARs :
  • 241130Z 18009KT 100V230 9999 FEW040 18/06 Q1009
  • 241100Z 18009KT 140V230 9999 FEW040 16/07 Q1009
  • 241030Z 16009KT 110V200 9999 FEW040 17/06 Q1008
  • 241000Z 18006KT 070V230 9999 FEW040 18/04 Q1008
  • 240930Z 19004KT 130V260 9999 SCT045 17/03 Q1008

TAF TAF LERS
Valid from the 24 at 09:00 until the 25 at 09:00 UTC


240800Z 2409/2509 30010KT 9999 FEW015 TX18/2412Z TN09/2506Z
BECMG 2409/2411 22015G25KT
BECMG 2418/2421 VRB03KT
TEMPO 2421/2506 2000 BR BKN015
No reported NOTAMs for that airfield.



MET'MAP, your aeronautical weather chart ! - Copyright ORBIFLY December 2007 - Disclaimer

ORBIFLY MET'MAP TEAM :

Programming & Development : Alexandra Zaïnal
Concept & Development : Baudouin d'Aumeries
Co-Development & Prog : Marc-Olivier Méhu
Technical & hardware support : Manuel Goepfert

Contact : metmap@orbifly.com




SOURCES & CREDITS :

   NOAA